createdAt,value
2022-09-28T00:00:40.699Z,995.42
2022-09-28T00:01:40.999Z,995.47
2022-09-28T00:02:40.755Z,995.64
2022-09-28T00:03:40.651Z,995.80
2022-09-28T00:04:40.668Z,995.99
2022-09-28T00:05:40.660Z,995.71
2022-09-28T00:06:40.624Z,995.25
2022-09-28T00:07:40.611Z,995.39
2022-09-28T00:08:40.613Z,995.78
2022-09-28T00:09:40.600Z,995.73
2022-09-28T00:10:40.613Z,996.00
2022-09-28T00:11:40.580Z,995.64
2022-09-28T00:12:40.555Z,995.44
2022-09-28T00:13:40.546Z,995.72
2022-09-28T00:14:40.554Z,995.21
2022-09-28T00:15:40.540Z,995.08
2022-09-28T00:16:40.542Z,995.56
2022-09-28T00:17:40.491Z,996.20
2022-09-28T00:18:40.504Z,997.75
2022-09-28T00:19:40.470Z,997.88
2022-09-28T00:20:40.480Z,998.70
2022-09-28T00:21:40.464Z,998.94
2022-09-28T00:22:40.432Z,998.45
2022-09-28T00:23:40.432Z,998.20
2022-09-28T00:24:40.413Z,997.88
2022-09-28T00:25:40.433Z,998.14
2022-09-28T00:26:40.404Z,997.89
2022-09-28T00:27:40.382Z,997.79
2022-09-28T00:28:40.379Z,998.26
2022-09-28T00:29:40.370Z,998.67
2022-09-28T00:30:40.352Z,999.28
2022-09-28T00:31:40.400Z,999.43
2022-09-28T00:32:40.343Z,999.03
2022-09-28T00:33:40.321Z,998.77
2022-09-28T00:34:40.290Z,998.37
2022-09-28T00:35:40.303Z,997.95
2022-09-28T00:36:40.282Z,997.75
2022-09-28T00:37:40.263Z,997.17
2022-09-28T00:38:40.249Z,997.51
2022-09-28T00:39:40.245Z,998.26
2022-09-28T00:40:40.295Z,999.37
2022-09-28T00:41:40.215Z,999.59
2022-09-28T00:42:40.233Z,999.62
2022-09-28T00:43:40.194Z,999.52
2022-09-28T00:44:40.177Z,999.02
2022-09-28T00:45:40.317Z,999.00
2022-09-28T00:46:40.154Z,999.33
2022-09-28T00:47:40.149Z,999.34
2022-09-28T00:48:40.124Z,999.27
2022-09-28T00:49:40.135Z,998.88
2022-09-28T00:50:40.137Z,998.40
2022-09-28T00:51:40.094Z,998.31
2022-09-28T00:52:40.095Z,998.40
2022-09-28T00:53:40.089Z,998.77
2022-09-28T00:54:40.072Z,998.66
2022-09-28T00:55:40.076Z,998.89
2022-09-28T00:56:40.044Z,999.98
2022-09-28T00:57:40.033Z,1000.36
2022-09-28T00:58:40.005Z,1000.76
2022-09-28T00:59:40.017Z,1001.08
2022-09-28T01:00:40.119Z,1001.52
2022-09-28T01:01:39.999Z,1001.19
2022-09-28T01:02:39.965Z,1001.30
2022-09-28T01:03:39.980Z,1001.20
2022-09-28T01:04:39.944Z,1002.47
2022-09-28T01:05:39.946Z,1002.30
2022-09-28T01:06:39.936Z,1002.73
2022-09-28T01:07:39.916Z,1003.05
2022-09-28T01:08:39.886Z,1003.20
2022-09-28T01:09:39.886Z,1003.33
2022-09-28T01:10:39.887Z,1003.56
2022-09-28T01:11:39.856Z,1004.23
2022-09-28T01:12:39.847Z,1004.73
2022-09-28T01:13:39.856Z,1005.10
2022-09-28T01:14:39.838Z,1005.16
2022-09-28T01:15:39.827Z,1005.40
2022-09-28T01:16:39.918Z,1004.97
2022-09-28T01:17:39.807Z,1005.38
2022-09-28T01:18:39.797Z,1005.79
2022-09-28T01:19:39.780Z,1006.61
2022-09-28T01:20:39.854Z,1006.84
2022-09-28T01:21:39.747Z,1007.58
2022-09-28T01:22:39.730Z,1007.32
2022-09-28T01:23:39.737Z,1007.38
2022-09-28T01:24:39.718Z,1007.10
2022-09-28T01:25:39.733Z,1006.80
2022-09-28T01:26:39.680Z,1006.47
2022-09-28T01:27:39.698Z,1006.24
2022-09-28T01:28:39.672Z,1006.44
2022-09-28T01:29:39.648Z,1006.87
2022-09-28T01:30:39.657Z,1006.55
2022-09-28T01:31:39.674Z,1006.78
2022-09-28T01:32:39.619Z,1009.34
2022-09-28T01:33:39.608Z,1009.45
2022-09-28T01:34:39.608Z,1009.37
2022-09-28T01:35:39.604Z,1008.75
2022-09-28T01:36:39.578Z,1008.70
2022-09-28T01:37:39.579Z,1009.27
2022-09-28T01:38:39.559Z,1010.27
2022-09-28T01:39:39.549Z,1010.90
2022-09-28T01:40:39.580Z,1011.09
2022-09-28T01:41:39.530Z,1010.70
2022-09-28T01:42:39.516Z,1011.29
2022-09-28T01:43:39.495Z,1011.55
2022-09-28T01:44:39.491Z,1012.06
2022-09-28T01:45:39.548Z,1012.37
2022-09-28T01:46:39.460Z,1012.49
2022-09-28T01:47:39.452Z,1012.64
2022-09-28T01:48:39.442Z,1013.14
2022-09-28T01:49:39.424Z,1012.91
2022-09-28T01:50:39.427Z,1012.90
2022-09-28T01:51:39.400Z,1013.36
2022-09-28T01:52:39.397Z,1013.79
2022-09-28T01:53:39.370Z,1014.14
2022-09-28T01:54:39.370Z,1014.45
2022-09-28T01:55:39.370Z,1014.07
2022-09-28T01:56:39.350Z,1014.04
2022-09-28T01:57:39.341Z,1014.38
2022-09-28T01:58:39.325Z,1014.56
2022-09-28T01:59:39.301Z,1014.40
2022-09-28T02:00:39.365Z,1014.14
2022-09-28T02:01:39.355Z,1013.97
2022-09-28T02:02:39.271Z,1013.61
2022-09-28T02:03:39.263Z,1013.27
2022-09-28T02:04:39.253Z,1013.22
2022-09-28T02:05:39.251Z,1013.57
2022-09-28T02:06:39.222Z,1013.85
2022-09-28T02:07:39.212Z,1014.30
2022-09-28T02:08:39.223Z,1014.48
2022-09-28T02:09:39.200Z,1013.92
2022-09-28T02:10:39.201Z,1014.88
2022-09-28T02:11:39.195Z,1015.10
2022-09-28T02:12:39.173Z,1015.42
2022-09-28T02:13:39.152Z,1015.85
2022-09-28T02:14:39.139Z,1016.04
2022-09-28T02:15:39.144Z,1016.08
2022-09-28T02:16:39.182Z,1016.32
2022-09-28T02:17:39.102Z,1016.03
2022-09-28T02:18:39.096Z,1016.00
2022-09-28T02:19:39.073Z,1016.10
2022-09-28T02:20:39.075Z,1016.00
2022-09-28T02:21:39.074Z,1016.31
2022-09-28T02:22:39.043Z,1016.02
2022-09-28T02:23:39.041Z,1015.89
2022-09-28T02:24:39.034Z,1015.76
2022-09-28T02:25:39.037Z,1015.48
2022-09-28T02:26:39.004Z,1015.14
2022-09-28T02:27:38.996Z,1015.42
2022-09-28T02:28:38.983Z,1015.72
2022-09-28T02:29:38.984Z,1015.72
2022-09-28T02:30:38.975Z,1015.89
2022-09-28T02:31:39.028Z,1015.58
2022-09-28T02:32:38.935Z,1015.67
2022-09-28T02:33:38.918Z,1015.63
2022-09-28T02:34:38.910Z,1015.35
2022-09-28T02:35:38.912Z,1014.86
2022-09-28T02:36:38.924Z,1014.43
2022-09-28T02:37:38.913Z,1015.11
2022-09-28T02:38:38.864Z,1015.80
2022-09-28T02:39:38.865Z,1016.39
2022-09-28T02:40:38.881Z,1016.38
2022-09-28T02:41:38.835Z,1016.53
2022-09-28T02:42:38.838Z,1016.65
2022-09-28T02:43:38.808Z,1016.48
2022-09-28T02:44:38.796Z,1016.71
2022-09-28T02:45:38.852Z,1016.62
2022-09-28T02:46:38.812Z,1016.79
2022-09-28T02:47:38.757Z,1016.37
2022-09-28T02:48:43.993Z,1016.07
2022-09-28T02:49:39.756Z,1015.67
2022-09-28T02:50:38.747Z,1015.34
2022-09-28T02:51:38.734Z,1015.42
2022-09-28T02:52:38.726Z,1015.62
2022-09-28T02:53:38.707Z,1015.73
2022-09-28T02:54:38.684Z,1015.97
2022-09-28T02:55:38.667Z,1016.04
2022-09-28T02:56:38.696Z,1016.26
2022-09-28T02:57:38.657Z,1016.42
2022-09-28T02:58:38.643Z,1016.39
2022-09-28T02:59:38.630Z,1016.39
2022-09-28T03:00:38.688Z,1016.25
2022-09-28T03:01:38.640Z,1016.02
2022-09-28T03:02:38.596Z,1015.45
2022-09-28T03:03:38.590Z,1015.44
2022-09-28T03:04:38.590Z,1015.59
2022-09-28T03:05:38.578Z,1015.83
2022-09-28T03:06:38.551Z,1015.98
2022-09-28T03:07:38.546Z,1016.29
2022-09-28T03:08:38.518Z,1016.70
2022-09-28T03:09:38.510Z,1017.14
2022-09-28T03:10:38.522Z,1017.29
2022-09-28T03:11:38.489Z,1017.29
2022-09-28T03:12:38.469Z,1017.04
2022-09-28T03:13:38.469Z,1016.82
2022-09-28T03:14:38.475Z,1016.45
2022-09-28T03:15:38.448Z,1016.63
2022-09-28T03:16:38.484Z,1016.56
2022-09-28T03:17:38.432Z,1017.37
2022-09-28T03:18:38.406Z,1018.03
2022-09-28T03:19:38.399Z,1018.33
2022-09-28T03:20:38.402Z,1018.47
2022-09-28T03:21:38.379Z,1018.38
2022-09-28T03:22:38.353Z,1018.30
2022-09-28T03:23:38.368Z,1018.30
2022-09-28T03:24:38.352Z,1018.34
2022-09-28T03:25:38.340Z,1018.27
2022-09-28T03:26:38.570Z,1018.26
2022-09-28T03:27:38.318Z,1018.12
2022-09-28T03:28:38.301Z,1018.14
2022-09-28T03:29:38.285Z,1017.77
2022-09-28T03:30:38.305Z,1017.58
2022-09-28T03:31:38.364Z,1017.84
2022-09-28T03:32:38.250Z,1017.82
2022-09-28T03:33:38.230Z,1018.03
2022-09-28T03:34:38.230Z,1018.06
2022-09-28T03:35:38.228Z,1017.84
2022-09-28T03:36:38.201Z,1017.73
2022-09-28T03:37:38.200Z,1017.77
2022-09-28T03:38:38.192Z,1017.74
2022-09-28T03:39:38.181Z,1017.46
2022-09-28T03:40:38.264Z,1017.13
2022-09-28T03:41:38.187Z,1016.72
2022-09-28T03:42:38.131Z,1016.58
2022-09-28T03:43:38.112Z,1016.67
2022-09-28T03:44:38.124Z,1016.56
2022-09-28T03:45:38.142Z,1016.36
2022-09-28T03:46:38.108Z,1016.74
2022-09-28T03:47:38.105Z,1016.44
2022-09-28T03:48:38.086Z,1015.77
2022-09-28T03:49:38.057Z,1015.34
2022-09-28T03:50:38.060Z,1015.47
2022-09-28T03:51:38.036Z,1015.51
2022-09-28T03:52:38.022Z,1016.00
2022-09-28T03:53:38.011Z,1016.23
2022-09-28T03:54:38.003Z,1016.66
2022-09-28T03:55:38.012Z,1016.60
2022-09-28T03:56:37.971Z,1016.33
2022-09-28T03:57:37.963Z,1016.18
2022-09-28T03:58:37.943Z,1016.03
2022-09-28T03:59:37.934Z,1015.33
2022-09-28T04:00:37.993Z,1015.75
2022-09-28T04:01:38.106Z,1016.19
2022-09-28T04:02:38.019Z,1016.52
2022-09-28T04:03:37.902Z,1016.74
2022-09-28T04:04:37.891Z,1017.08
2022-09-28T04:05:37.894Z,1017.18
2022-09-28T04:06:37.857Z,1016.95
2022-09-28T04:07:37.910Z,1016.79
2022-09-28T04:08:37.834Z,1017.39
2022-09-28T04:09:37.846Z,1017.30
2022-09-28T04:10:37.834Z,1017.12
2022-09-28T04:11:59.407Z,1016.63
2022-09-28T04:12:38.804Z,1017.15
2022-09-28T04:13:37.784Z,1017.34
2022-09-28T04:14:37.755Z,1017.21
2022-09-28T04:15:37.795Z,1017.22
2022-09-28T04:16:37.797Z,1016.97
2022-09-28T04:17:40.061Z,1016.57
2022-09-28T04:18:37.735Z,1016.73
2022-09-28T04:19:37.726Z,1017.20
2022-09-28T04:20:37.705Z,1017.68
2022-09-28T04:21:37.687Z,1017.74
2022-09-28T04:22:37.710Z,1017.61
2022-09-28T04:23:37.664Z,1017.59
2022-09-28T04:24:37.646Z,1017.73
2022-09-28T04:25:37.676Z,1017.46
2022-09-28T04:26:37.625Z,1016.69
2022-09-28T04:27:37.618Z,1016.61
2022-09-28T04:28:37.607Z,1016.45
2022-09-28T04:29:37.596Z,1016.16
2022-09-28T04:30:37.600Z,1015.84
2022-09-28T04:31:37.608Z,1015.98
2022-09-28T04:32:37.567Z,1014.97
2022-09-28T04:33:37.558Z,1014.79
2022-09-28T04:34:41.844Z,1014.62
2022-09-28T04:35:38.556Z,1014.73
2022-09-28T04:36:37.528Z,1014.42
2022-09-28T04:37:37.508Z,1015.15
2022-09-28T04:38:52.445Z,1015.56
2022-09-28T04:39:38.487Z,1016.95
2022-09-28T04:40:37.493Z,1017.64
2022-09-28T04:41:37.478Z,1017.65
2022-09-28T04:42:37.457Z,1017.97
2022-09-28T04:43:37.455Z,1018.22
2022-09-28T04:44:37.428Z,1017.95
2022-09-28T04:45:37.458Z,1017.89
2022-09-28T04:46:37.428Z,1018.28
2022-09-28T04:47:37.388Z,1019.03
2022-09-28T04:48:37.369Z,1019.33
2022-09-28T04:49:37.397Z,1019.36
2022-09-28T04:50:37.369Z,1019.46
2022-09-28T04:51:37.369Z,1019.76
2022-09-28T04:52:37.352Z,1019.95
2022-09-28T04:53:37.337Z,1019.48
2022-09-28T04:54:37.319Z,1019.45
2022-09-28T04:55:37.297Z,1019.62
2022-09-28T04:56:37.320Z,1019.54
2022-09-28T04:57:37.278Z,1019.71
2022-09-28T04:58:37.268Z,1019.54
2022-09-28T04:59:37.278Z,1018.91
2022-09-28T05:00:37.257Z,1018.71
2022-09-28T05:01:37.293Z,1018.84
2022-09-28T05:02:37.311Z,1019.18
2022-09-28T05:03:37.212Z,1018.47
2022-09-28T05:04:37.195Z,1018.65
2022-09-28T05:05:37.190Z,1019.04
2022-09-28T05:06:37.209Z,1018.92
2022-09-28T05:07:37.170Z,1019.15
2022-09-28T05:08:37.155Z,1019.39
2022-09-28T05:09:38.538Z,1019.10
2022-09-28T05:10:37.141Z,1019.51
2022-09-28T05:11:37.132Z,1020.03
2022-09-28T05:12:37.110Z,1019.71
2022-09-28T05:13:37.093Z,1019.59
2022-09-28T05:14:37.082Z,1019.80
2022-09-28T05:15:37.063Z,1020.47
2022-09-28T05:16:37.171Z,1020.60
2022-09-28T05:17:37.054Z,1020.57
2022-09-28T05:18:37.032Z,1020.56
2022-09-28T05:19:37.012Z,1020.06
2022-09-28T05:20:37.038Z,1019.87
2022-09-28T05:21:37.011Z,1019.59
2022-09-28T05:22:36.981Z,1019.90
2022-09-28T05:23:36.990Z,1020.24
2022-09-28T05:24:36.981Z,1019.84
2022-09-28T05:25:37.023Z,1019.24
2022-09-28T05:26:36.963Z,1018.91
2022-09-28T05:27:36.942Z,1019.00
2022-09-28T05:28:36.920Z,1019.23
2022-09-28T05:29:36.902Z,1019.09
2022-09-28T05:30:36.932Z,1018.89
2022-09-28T05:31:36.956Z,1018.90
2022-09-28T05:32:36.880Z,1019.21
2022-09-28T05:33:36.874Z,1018.75
2022-09-28T05:34:36.867Z,1018.88
2022-09-28T05:35:36.844Z,1019.70
2022-09-28T05:36:36.846Z,1020.49
2022-09-28T05:37:36.824Z,1020.51
2022-09-28T05:38:36.802Z,1020.33
2022-09-28T05:39:36.803Z,1020.26
2022-09-28T05:40:36.830Z,1020.23
2022-09-28T05:41:36.773Z,1019.85
2022-09-28T05:42:36.764Z,1020.21
2022-09-28T05:43:36.761Z,1020.47
2022-09-28T05:44:36.736Z,1021.07
2022-09-28T05:45:36.769Z,1021.33
2022-09-28T05:46:36.704Z,1021.34
2022-09-28T05:47:36.722Z,1021.25
2022-09-28T05:48:36.697Z,1021.34
2022-09-28T05:49:36.674Z,1021.46
2022-09-28T05:50:36.694Z,1021.37
2022-09-28T05:51:36.673Z,1021.32
2022-09-28T05:52:36.654Z,1021.34
2022-09-28T05:53:36.646Z,1021.03
2022-09-28T05:54:36.635Z,1020.87
2022-09-28T05:55:36.625Z,1020.68
2022-09-28T05:56:36.596Z,1020.57
2022-09-28T05:57:36.600Z,1020.76
2022-09-28T05:58:36.585Z,1021.41
2022-09-28T05:59:36.569Z,1021.90
2022-09-28T06:00:36.587Z,1022.20
2022-09-28T06:01:36.570Z,1022.60
2022-09-28T06:02:36.601Z,1022.99
2022-09-28T06:03:36.523Z,1022.95
2022-09-28T06:04:36.527Z,1023.02
2022-09-28T06:05:36.511Z,1024.28
2022-09-28T06:06:36.496Z,1025.20
2022-09-28T06:07:36.794Z,1026.01
2022-09-28T06:08:36.464Z,1026.49
2022-09-28T06:09:36.445Z,1026.16
2022-09-28T06:10:36.485Z,1025.13
2022-09-28T06:11:36.426Z,1025.24
2022-09-28T06:12:36.418Z,1025.90
2022-09-28T06:13:36.397Z,1026.31
2022-09-28T06:14:36.408Z,1026.48
2022-09-28T06:15:36.389Z,1026.82
2022-09-28T06:16:40.368Z,1026.97
2022-09-28T06:17:37.370Z,1026.68
2022-09-28T06:18:36.358Z,1026.82
2022-09-28T06:19:36.340Z,1026.66
2022-09-28T06:20:36.348Z,1026.69
2022-09-28T06:21:36.316Z,1026.66
2022-09-28T06:22:36.307Z,1026.52
2022-09-28T06:23:36.288Z,1026.16
2022-09-28T06:24:36.304Z,1025.65
2022-09-28T06:25:36.290Z,1025.63
2022-09-28T06:26:36.257Z,1026.01
2022-09-28T06:27:36.256Z,1026.65
2022-09-28T06:28:36.248Z,1027.24
2022-09-28T06:29:36.228Z,1027.37
2022-09-28T06:30:36.279Z,1027.17
2022-09-28T06:31:36.190Z,1026.70
2022-09-28T06:32:36.180Z,1026.35
2022-09-28T06:33:36.180Z,1026.59
2022-09-28T06:34:36.149Z,1026.56
2022-09-28T06:35:36.166Z,1026.72
2022-09-28T06:36:36.129Z,1026.22
2022-09-28T06:37:36.139Z,1026.11
2022-09-28T06:38:36.115Z,1025.65
2022-09-28T06:39:36.099Z,1025.18
2022-09-28T06:40:36.199Z,1025.58
2022-09-28T06:41:36.079Z,1025.85
2022-09-28T06:42:36.068Z,1025.86
2022-09-28T06:43:36.059Z,1025.65
2022-09-28T06:44:36.049Z,1025.22
2022-09-28T06:45:36.063Z,1025.73
2022-09-28T06:46:36.032Z,1026.24
2022-09-28T06:47:36.020Z,1026.30
2022-09-28T06:48:36.005Z,1025.57
2022-09-28T06:49:35.990Z,1024.90
2022-09-28T06:50:35.992Z,1023.94
2022-09-28T06:51:35.976Z,1023.71
2022-09-28T06:52:35.962Z,1024.32
2022-09-28T06:53:35.964Z,1025.15
2022-09-28T06:54:35.932Z,1025.88
2022-09-28T06:55:35.932Z,1027.02
2022-09-28T06:56:36.170Z,1027.51
2022-09-28T06:57:35.906Z,1027.47
2022-09-28T06:58:35.872Z,1027.59
2022-09-28T06:59:35.861Z,1028.30
2022-09-28T07:00:35.881Z,1028.43
2022-09-28T07:01:35.888Z,1028.73
2022-09-28T07:02:35.849Z,1029.39
2022-09-28T07:03:35.821Z,1029.33
2022-09-28T07:04:35.827Z,1028.45
2022-09-28T07:05:35.813Z,1027.22
2022-09-28T07:06:35.791Z,1026.04
2022-09-28T07:07:35.774Z,1025.12
2022-09-28T07:08:35.773Z,1024.28
2022-09-28T07:09:41.444Z,1024.34
2022-09-28T07:10:36.744Z,1024.21
2022-09-28T07:11:35.734Z,1024.30
2022-09-28T07:12:35.717Z,1024.88
2022-09-28T07:13:49.910Z,1025.25
2022-09-28T07:14:47.296Z,1025.39
2022-09-28T07:15:36.695Z,1025.59
2022-09-28T07:17:06.888Z,1026.09
2022-09-28T07:17:50.885Z,1026.42
2022-09-28T07:18:36.647Z,1026.76
2022-09-28T07:19:35.630Z,1027.06
2022-09-28T07:20:46.308Z,1027.35
2022-09-28T07:21:36.615Z,1027.78
2022-09-28T07:22:43.105Z,1027.99
2022-09-28T07:23:47.843Z,1028.13
2022-09-28T07:24:36.605Z,1028.57
2022-09-28T07:25:35.565Z,1029.56
2022-09-28T07:26:35.555Z,1030.28
2022-09-28T07:27:35.538Z,1029.05
2022-09-28T07:28:35.546Z,1027.84
2022-09-28T07:29:35.505Z,1027.27
2022-09-28T07:30:35.565Z,1026.58
2022-09-28T07:31:35.505Z,1025.50
2022-09-28T07:32:35.507Z,1024.09
2022-09-28T07:33:35.478Z,1023.68
2022-09-28T07:34:35.456Z,1023.75
2022-09-28T07:35:35.476Z,1024.16
2022-09-28T07:36:35.427Z,1024.15
2022-09-28T07:37:35.426Z,1024.24
2022-09-28T07:38:35.426Z,1024.13
2022-09-28T07:39:35.397Z,1023.99
2022-09-28T07:40:35.477Z,1024.45
2022-09-28T07:41:35.387Z,1025.19
2022-09-28T07:42:35.646Z,1025.10
2022-09-28T07:43:35.351Z,1024.49
2022-09-28T07:44:35.348Z,1023.71
2022-09-28T07:45:35.387Z,1023.16
2022-09-28T07:46:35.319Z,1022.71
2022-09-28T07:47:35.539Z,1022.35
2022-09-28T07:48:35.393Z,1022.25
2022-09-28T07:49:35.282Z,1022.34
2022-09-28T07:50:35.291Z,1022.61
2022-09-28T07:51:35.688Z,1023.07
2022-09-28T07:52:35.267Z,1022.52
2022-09-28T07:53:35.241Z,1022.64
2022-09-28T07:54:35.238Z,1023.48
2022-09-28T07:55:35.248Z,1024.06
2022-09-28T07:56:35.210Z,1024.65
2022-09-28T07:57:35.209Z,1024.95
2022-09-28T07:58:35.188Z,1024.09
2022-09-28T07:59:35.169Z,1022.50
2022-09-28T08:00:35.195Z,1020.85
2022-09-28T08:01:35.277Z,1020.35
2022-09-28T08:02:35.264Z,1020.34
2022-09-28T08:03:35.138Z,1020.60
2022-09-28T08:04:35.119Z,1019.99
2022-09-28T08:05:35.218Z,1018.95
2022-09-28T08:06:35.104Z,1017.36
2022-09-28T08:07:35.101Z,1016.88
2022-09-28T08:08:35.065Z,1018.37
2022-09-28T08:09:35.063Z,1018.86
2022-09-28T08:10:35.067Z,1019.49
2022-09-28T08:11:35.028Z,1019.66
2022-09-28T08:12:35.024Z,1020.39
2022-09-28T08:13:35.001Z,1021.87
2022-09-28T08:14:34.991Z,1023.33
2022-09-28T08:15:34.991Z,1025.24
2022-09-28T08:16:35.103Z,1026.06
2022-09-28T08:17:34.967Z,1025.16
2022-09-28T08:18:34.953Z,1025.56
2022-09-28T08:19:34.994Z,1025.80
2022-09-28T08:20:35.052Z,1027.05
2022-09-28T08:21:34.912Z,1029.09
2022-09-28T08:22:34.916Z,1029.66
2022-09-28T08:23:35.415Z,1028.44
2022-09-28T08:24:34.880Z,1028.57
2022-09-28T08:25:34.892Z,1029.63
2022-09-28T08:26:35.030Z,1029.26
2022-09-28T08:27:34.842Z,1029.18
2022-09-28T08:28:34.851Z,1031.05
2022-09-28T08:29:34.833Z,1033.37
2022-09-28T08:30:34.938Z,1033.19
2022-09-28T08:31:34.813Z,1033.69
2022-09-28T08:32:34.786Z,1033.81
2022-09-28T08:33:34.782Z,1032.86
2022-09-28T08:34:34.774Z,1030.37
2022-09-28T08:35:34.756Z,1025.45
2022-09-28T08:36:34.753Z,1023.37
2022-09-28T08:37:34.725Z,1025.20
2022-09-28T08:38:34.716Z,1027.11
2022-09-28T08:39:34.704Z,1030.75
2022-09-28T08:40:34.732Z,1034.09
2022-09-28T08:41:34.675Z,1035.23
2022-09-28T08:42:34.674Z,1035.13
2022-09-28T08:43:34.656Z,1034.83
2022-09-28T08:44:34.772Z,1035.69
2022-09-28T08:45:34.648Z,1038.40
2022-09-28T08:46:34.660Z,1039.92
2022-09-28T08:47:34.635Z,1039.65
2022-09-28T08:48:34.605Z,1038.88
2022-09-28T08:49:34.842Z,1038.28
2022-09-28T08:50:34.605Z,1038.03
2022-09-28T08:51:34.580Z,1037.02
2022-09-28T08:52:34.556Z,1036.48
2022-09-28T08:53:34.556Z,1037.72
2022-09-28T08:54:34.547Z,1038.36
2022-09-28T08:55:34.566Z,1037.05
2022-09-28T08:56:34.526Z,1036.40
2022-09-28T08:57:34.507Z,1036.43
2022-09-28T08:58:34.505Z,1035.51
2022-09-28T08:59:34.748Z,1032.02
2022-09-28T09:00:34.509Z,1027.97
2022-09-28T09:01:34.502Z,1026.73
2022-09-28T09:02:34.528Z,1025.84
2022-09-28T09:03:34.440Z,1028.56
2022-09-28T09:04:34.417Z,1036.54
2022-09-28T09:05:34.437Z,1037.25
2022-09-28T09:06:34.419Z,1040.06
2022-09-28T09:07:34.410Z,1039.94
2022-09-28T09:08:34.385Z,1040.29
2022-09-28T09:09:34.378Z,1040.38
2022-09-28T09:10:34.376Z,1034.15
2022-09-28T09:11:34.348Z,1040.46
2022-09-28T09:12:34.341Z,1040.64
2022-09-28T09:13:34.328Z,1040.72
2022-09-28T09:14:34.309Z,1040.72
2022-09-28T09:15:34.353Z,1040.78
2022-09-28T09:16:34.328Z,1040.83
2022-09-28T09:17:34.292Z,1040.95
2022-09-28T09:18:34.269Z,1041.09
2022-09-28T09:19:34.269Z,1041.19
2022-09-28T09:20:34.270Z,1034.70
2022-09-28T09:21:34.233Z,1031.64
2022-09-28T09:22:34.221Z,1030.61
2022-09-28T09:23:34.221Z,1030.51
2022-09-28T09:24:34.202Z,1030.53
2022-09-28T09:25:38.278Z,1030.71
2022-09-28T09:26:34.197Z,1031.51
2022-09-28T09:27:34.187Z,1031.45
2022-09-28T09:28:34.150Z,1030.88
2022-09-28T09:29:34.159Z,1032.79
2022-09-28T09:30:34.168Z,1034.68
2022-09-28T09:31:34.123Z,1036.94
2022-09-28T09:32:34.102Z,1040.93
2022-09-28T09:33:34.102Z,1041.07
2022-09-28T09:34:34.084Z,1041.19
2022-09-28T09:35:34.101Z,1041.26
2022-09-28T09:36:34.073Z,1040.86
2022-09-28T09:37:34.094Z,1038.81
2022-09-28T09:38:34.771Z,1038.03
2022-09-28T09:39:34.032Z,1037.68
2022-09-28T09:40:34.070Z,1037.79
2022-09-28T09:41:34.017Z,1039.75
2022-09-28T09:42:34.012Z,1041.25
2022-09-28T09:43:33.984Z,1041.53
2022-09-28T09:44:33.983Z,1041.02
2022-09-28T09:45:33.974Z,1040.36
2022-09-28T09:46:33.953Z,1038.61
2022-09-28T09:47:33.943Z,1037.89
2022-09-28T09:48:33.925Z,1037.52
2022-09-28T09:49:33.915Z,1038.24
2022-09-28T09:50:33.936Z,1037.95
2022-09-28T09:51:33.884Z,1036.91
2022-09-28T09:53:37.674Z,1036.80
2022-09-28T09:54:33.857Z,1035.06
2022-09-28T09:55:33.855Z,1033.81
2022-09-28T09:56:33.845Z,1032.96
2022-09-28T09:57:33.816Z,1033.32
2022-09-28T09:58:33.836Z,1035.35
2022-09-28T09:59:33.823Z,1037.29
2022-09-28T10:00:33.807Z,1038.78
2022-09-28T10:01:34.133Z,1039.94
2022-09-28T10:02:33.795Z,1040.18
2022-09-28T10:03:33.758Z,1039.54
2022-09-28T10:04:33.758Z,1037.65
2022-09-28T10:05:33.757Z,1036.46
2022-09-28T10:06:33.725Z,1035.71
2022-09-28T10:07:33.726Z,1035.76
2022-09-28T10:08:33.698Z,1037.20
2022-09-28T10:09:33.677Z,1037.63
2022-09-28T10:10:33.688Z,1037.42
2022-09-28T10:11:33.746Z,1038.49
2022-09-28T10:12:33.637Z,1039.66
2022-09-28T10:13:33.631Z,1040.20
2022-09-28T10:14:33.618Z,1040.36
2022-09-28T10:15:33.620Z,1039.62
2022-09-28T10:16:33.644Z,1036.20
2022-09-28T10:17:33.590Z,1032.94
2022-09-28T10:18:33.569Z,1027.05
2022-09-28T10:19:33.568Z,1022.21
2022-09-28T10:20:33.568Z,1020.91
2022-09-28T10:21:33.547Z,1019.62
2022-09-28T10:22:34.032Z,1013.81
2022-09-28T10:23:33.520Z,1009.84
2022-09-28T10:24:33.501Z,1015.43
2022-09-28T10:25:33.521Z,1020.61
2022-09-28T10:26:33.480Z,1024.14
2022-09-28T10:27:33.471Z,1027.94
2022-09-28T10:28:33.450Z,1032.55
2022-09-28T10:29:33.449Z,1036.82
2022-09-28T10:30:33.484Z,1038.31
2022-09-28T10:31:33.424Z,1037.28
2022-09-28T10:32:33.401Z,1034.52
2022-09-28T10:33:33.412Z,1031.88
2022-09-28T10:34:33.382Z,1029.19
2022-09-28T10:35:33.429Z,1030.84
2022-09-28T10:36:33.463Z,1026.58
2022-09-28T10:37:33.342Z,1023.00
2022-09-28T10:38:33.333Z,1016.34
2022-09-28T10:39:33.338Z,1006.20
2022-09-28T10:40:33.375Z,994.56
2022-09-28T10:41:33.293Z,990.79
2022-09-28T10:42:33.291Z,997.52
2022-09-28T10:43:33.273Z,1009.10
2022-09-28T10:44:33.275Z,1021.89
2022-09-28T10:45:33.274Z,1032.87
2022-09-28T10:46:33.341Z,1039.15
2022-09-28T10:47:33.237Z,1040.80
2022-09-28T10:48:33.228Z,1039.32
2022-09-28T10:49:33.219Z,1035.17
2022-09-28T10:50:33.194Z,1024.22
2022-09-28T10:51:33.215Z,1008.03
2022-09-28T10:52:33.436Z,984.00
2022-09-28T10:53:33.165Z,960.41
2022-09-28T10:54:33.175Z,945.16
2022-09-28T10:55:33.144Z,940.97
2022-09-28T10:56:33.164Z,954.13
2022-09-28T10:57:33.117Z,973.86
2022-09-28T10:58:33.106Z,991.55
2022-09-28T10:59:33.084Z,1005.21
2022-09-28T11:00:33.120Z,1018.62
2022-09-28T11:01:33.170Z,1027.01
2022-09-28T11:02:35.947Z,1029.58
2022-09-28T11:03:33.089Z,1029.13
2022-09-28T11:04:33.029Z,1029.45
2022-09-28T11:05:33.026Z,1029.97
2022-09-28T11:06:33.004Z,1029.11
2022-09-28T11:07:32.999Z,1029.15
2022-09-28T11:08:32.978Z,1029.03
2022-09-28T11:09:33.014Z,1030.77
2022-09-28T11:10:32.970Z,1033.56
2022-09-28T11:11:32.947Z,1035.00
2022-09-28T11:12:32.990Z,1042.37
2022-09-28T11:13:33.577Z,1029.26
2022-09-28T11:14:32.915Z,1011.19
2022-09-28T11:15:32.935Z,992.56
2022-09-28T11:16:32.928Z,964.52
2022-09-28T11:17:32.879Z,935.77
2022-09-28T11:18:32.888Z,916.32
2022-09-28T11:19:32.861Z,901.99
2022-09-28T11:20:32.850Z,897.79
2022-09-28T11:21:32.839Z,900.31
2022-09-28T11:22:32.819Z,902.44
2022-09-28T11:23:32.810Z,909.11
2022-09-28T11:24:32.815Z,923.73
2022-09-28T11:25:32.810Z,942.43
2022-09-28T11:26:32.770Z,963.48
2022-09-28T11:27:32.795Z,982.79
2022-09-28T11:28:32.774Z,1000.52
2022-09-28T11:29:32.742Z,1013.60
2022-09-28T11:30:32.917Z,1019.52
2022-09-28T11:31:32.712Z,1020.37
2022-09-28T11:32:32.710Z,1017.96
2022-09-28T11:33:32.707Z,1017.65
2022-09-28T11:34:54.912Z,1036.08
2022-09-28T11:35:33.663Z,1039.64
2022-09-28T11:36:32.672Z,1034.29
2022-09-28T11:37:32.641Z,1028.52
2022-09-28T11:38:32.623Z,995.31
2022-09-28T11:39:32.660Z,1025.94
2022-09-28T11:40:32.627Z,1027.26
2022-09-28T11:41:32.595Z,1037.82
2022-09-28T11:42:32.615Z,1040.89
2022-09-28T11:43:32.563Z,1042.84
2022-09-28T11:44:33.719Z,1029.57
2022-09-28T11:45:33.135Z,1040.14
2022-09-28T11:46:33.556Z,1042.87
2022-09-28T11:47:32.535Z,1006.75
2022-09-28T11:48:32.523Z,999.63
2022-09-28T11:49:32.525Z,980.60
2022-09-28T11:50:32.607Z,977.27
2022-09-28T11:51:32.506Z,985.46
2022-09-28T11:52:32.465Z,996.27
2022-09-28T11:53:32.465Z,1008.04
2022-09-28T11:54:32.467Z,1014.21
2022-09-28T11:55:32.450Z,1012.31
2022-09-28T11:56:32.415Z,1008.63
2022-09-28T11:57:32.446Z,1006.91
2022-09-28T11:58:32.408Z,999.53
2022-09-28T11:59:32.398Z,997.98
2022-09-28T12:00:32.387Z,1000.40
2022-09-28T12:01:32.367Z,1003.07
2022-09-28T12:02:32.404Z,1006.42
2022-09-28T12:03:32.429Z,1010.28
2022-09-28T12:04:32.338Z,1013.80
2022-09-28T12:05:32.350Z,1013.13
2022-09-28T12:06:32.317Z,1007.81
2022-09-28T12:07:32.581Z,1001.41
2022-09-28T12:08:32.297Z,990.72
2022-09-28T12:09:32.278Z,977.77